Aérodrome :
LOGIN :

S'inscrire | Disclaimer

   EN    FR    IT 

 










Légende :    VFR   VFR Marginal   IFR   IFR Intensif   IFR Très Intensif
Visi : 
Plafond : 
>= 8 km
>= 3000ft
5 à 8 km
1000 à 3000 ft
1500m à 5 km
500 à 1000 ft
800 à 1500m
200 à 500 ft
< 800m
< 200 ft
Symboles :   Orages  Brouillard  Fortes neiges  Fortes précipitations  Vent > 20 kt
SIGMETs :   Divers  Orages  Givrage  Turbulence  Onde Orograph.  Cendres Volcan.







- Altitude de l'aérodrome : 26 ft
- Code IATA : BIA
- Voir les cartes d'approche


LFKB - Bastia

DERNIER METAR :
  • 301215Z 03004KT 350V090 CAVOK 21/11 Q1025 NOSIG

METARs EXPIRÉS :
  • 301130Z 05005KT 020V080 CAVOK 20/11 Q1025 NOSIG
  • 301100Z 06005KT 030V090 CAVOK 20/11 Q1026 NOSIG
  • 301030Z 02005KT 350V060 CAVOK 19/11 Q1026 NOSIG
  • 301000Z 04006KT CAVOK 19/10 Q1026 NOSIG
  • 300930Z 04004KT 360V070 CAVOK 20/09 Q1026 NOSIG

TAF TAF LFKB
Valide du 30 à 09h jusqu'au 31 à 09h UTC


300800Z 3009/3109 04008KT CAVOK TX20/3013Z TN09/3103Z
ATIS : +33 4 95 59 19 40
Pas de NOTAMs connus pour ce terrain.



MET'MAP, la Météo Aéronautique d'un coup d'oeil ! - Copyright ORBIFLY Décembre 2007 - Disclaimer

ORBIFLY MET'MAP TEAM :

Programmation & Développement : Alexandra Zaïnal
Conception & Développement : Baudouin d'Aumeries
Co-Programmation & Développement : Marc-Olivier Méhu
Soutien technique & logistique : Manuel Goepfert

Contact : metmap@orbifly.com




SOURCES & CREDITS :

   NOAA